createdAt,value
2018-06-02T00:01:45.694Z,101170.95
2018-06-02T00:04:11.814Z,101175.11
2018-06-02T00:06:37.587Z,101175.09
2018-06-02T00:09:04.237Z,101173.25
2018-06-02T00:11:29.985Z,101168.26
2018-06-02T00:13:55.729Z,101169.70
2018-06-02T00:16:21.464Z,101167.34
2018-06-02T00:18:47.878Z,101172.02
2018-06-02T00:21:13.667Z,101167.84
2018-06-02T00:23:39.413Z,101165.05
2018-06-02T00:26:05.165Z,101168.33
2018-06-02T00:28:31.786Z,101161.97
2018-06-02T00:30:57.568Z,101166.55
2018-06-02T00:33:23.946Z,101167.02
2018-06-02T00:35:49.703Z,101164.32
2018-06-02T00:38:16.394Z,101160.20
2018-06-02T00:40:42.159Z,101163.70
2018-06-02T00:43:07.895Z,101152.77
2018-06-02T00:45:33.653Z,101151.81
2018-06-02T00:47:59.384Z,101156.00
2018-06-02T00:50:25.137Z,101149.81
2018-06-02T00:52:52.136Z,101148.55
2018-06-02T00:55:17.900Z,101142.63
2018-06-02T00:57:43.657Z,101146.77
2018-06-02T01:00:09.392Z,101146.16
2018-06-02T01:02:35.158Z,101145.82
2018-06-02T01:05:00.917Z,101139.44
2018-06-02T01:07:26.669Z,101133.97
2018-06-02T01:09:52.425Z,101137.03
2018-06-02T01:12:18.168Z,101130.12
2018-06-02T01:14:43.917Z,101122.33
2018-06-02T01:17:09.657Z,101118.41
2018-06-02T01:19:35.412Z,101121.36
2018-06-02T01:22:01.153Z,101118.25
2018-06-02T01:24:26.901Z,101118.71
2018-06-02T01:26:52.658Z,101119.08
2018-06-02T01:29:18.405Z,101131.46
2018-06-02T01:31:44.147Z,101132.90
2018-06-02T01:34:09.905Z,101134.07
2018-06-02T01:36:35.656Z,101133.63
2018-06-02T01:39:01.402Z,101130.67
2018-06-02T01:41:27.177Z,101134.66
2018-06-02T01:43:52.912Z,101136.53
2018-06-02T01:46:18.659Z,101131.63
2018-06-02T01:48:44.392Z,101130.44
2018-06-02T01:51:10.141Z,101125.84
2018-06-02T01:53:35.874Z,101131.02
2018-06-02T01:56:01.626Z,101128.34
2018-06-02T01:58:27.369Z,101129.78
2018-06-02T02:00:53.117Z,101129.20
2018-06-02T02:03:18.874Z,101126.20
2018-06-02T02:05:44.640Z,101137.80
2018-06-02T02:08:10.389Z,101132.82
2018-06-02T02:10:36.357Z,101125.37
2018-06-02T02:13:02.116Z,101127.44
2018-06-02T02:15:27.879Z,101144.26
2018-06-02T02:17:53.630Z,101153.02
2018-06-02T02:20:19.392Z,101156.89
2018-06-02T02:22:45.120Z,101162.51
2018-06-02T02:25:10.892Z,101167.08
2018-06-02T02:27:36.634Z,101165.05
2018-06-02T02:30:02.380Z,101167.49
2018-06-02T02:32:28.135Z,101164.11
2018-06-02T02:34:53.877Z,101156.95
2018-06-02T02:37:19.614Z,101161.39
2018-06-02T02:39:45.365Z,101163.98
2018-06-02T02:42:11.097Z,101164.61
2018-06-02T02:44:36.842Z,101162.78
2018-06-02T02:47:02.601Z,101160.14
2018-06-02T02:49:28.331Z,101158.50
2018-06-02T02:51:54.077Z,101162.44
2018-06-02T02:54:19.809Z,101165.34
2018-06-02T02:56:45.567Z,101170.16
2018-06-02T02:59:11.320Z,101168.34
2018-06-02T03:01:37.069Z,101175.91
2018-06-02T03:04:02.814Z,101182.14
2018-06-02T03:06:28.585Z,101183.90
2018-06-02T03:08:54.334Z,101187.78
2018-06-02T03:11:20.077Z,101186.15
2018-06-02T03:13:45.808Z,101182.07
2018-06-02T03:16:11.548Z,101193.71
2018-06-02T03:18:37.283Z,101194.17
2018-06-02T03:21:03.043Z,101191.26
2018-06-02T03:23:28.792Z,101197.50
2018-06-02T03:25:54.539Z,101203.98
2018-06-02T03:28:20.285Z,101206.36
2018-06-02T03:30:46.043Z,101211.33
2018-06-02T03:33:11.771Z,101213.84
2018-06-02T03:35:37.517Z,101221.62
2018-06-02T03:38:03.272Z,101222.10
2018-06-02T03:40:29.425Z,101226.39
2018-06-02T03:42:55.173Z,101231.88
2018-06-02T03:45:20.901Z,101225.41
2018-06-02T03:47:46.643Z,101220.23
2018-06-02T03:50:12.367Z,101217.05
2018-06-02T03:52:38.111Z,101219.73
2018-06-02T03:55:03.866Z,101224.47
2018-06-02T03:57:29.608Z,101225.75
2018-06-02T03:59:55.347Z,101226.99
2018-06-02T04:02:21.092Z,101224.25
2018-06-02T04:04:46.835Z,101237.28
2018-06-02T04:07:12.573Z,101235.34
2018-06-02T04:09:38.309Z,101232.84
2018-06-02T04:12:04.061Z,101227.78
2018-06-02T04:14:29.788Z,101218.27
2018-06-02T04:16:55.545Z,101230.23
2018-06-02T04:19:21.297Z,101228.20
2018-06-02T04:21:47.040Z,101223.22
2018-06-02T04:24:12.785Z,101226.44
2018-06-02T04:26:38.541Z,101227.37
2018-06-02T04:29:04.309Z,101223.14
2018-06-02T04:31:30.077Z,101228.16
2018-06-02T04:33:55.820Z,101223.66
2018-06-02T04:36:21.572Z,101224.38
2018-06-02T04:38:47.299Z,101221.49
2018-06-02T04:41:13.062Z,101216.34
2018-06-02T04:43:38.803Z,101218.34
2018-06-02T04:46:04.555Z,101222.28
2018-06-02T04:48:30.291Z,101230.34
2018-06-02T04:50:56.068Z,101227.95
2018-06-02T04:53:21.803Z,101225.05
2018-06-02T04:55:47.561Z,101225.30
2018-06-02T04:58:13.305Z,101224.56
2018-06-02T05:00:39.053Z,101229.91
2018-06-02T05:03:04.805Z,101227.83
2018-06-02T05:05:30.554Z,101233.31
2018-06-02T05:07:56.306Z,101231.16
2018-06-02T05:10:22.048Z,101221.05
2018-06-02T05:12:47.801Z,101226.91
2018-06-02T05:15:13.608Z,101225.45
2018-06-02T05:17:39.278Z,101218.70
2018-06-02T05:20:05.041Z,101227.77
2018-06-02T05:22:30.792Z,101225.59
2018-06-02T05:24:56.529Z,101228.44
2018-06-02T05:27:22.288Z,101230.88
2018-06-02T05:29:48.024Z,101229.46
2018-06-02T05:32:13.769Z,101233.20
2018-06-02T05:34:39.523Z,101231.25
2018-06-02T05:37:05.273Z,101230.20
2018-06-02T05:39:31.012Z,101236.64
2018-06-02T05:41:56.756Z,101236.00
2018-06-02T05:44:22.508Z,101234.13
2018-06-02T05:46:48.295Z,101223.91
2018-06-02T05:49:14.028Z,101225.10
2018-06-02T05:51:39.792Z,101223.99
2018-06-02T05:54:05.537Z,101229.47
2018-06-02T05:56:31.297Z,101220.65
2018-06-02T05:58:57.057Z,101221.95
2018-06-02T06:01:22.816Z,101221.26
2018-06-02T06:03:48.558Z,101222.47
2018-06-02T06:06:14.304Z,101227.38
2018-06-02T06:08:40.096Z,101233.58
2018-06-02T06:11:05.817Z,101231.08
2018-06-02T06:13:31.581Z,101236.52
2018-06-02T06:15:57.321Z,101242.77
2018-06-02T06:18:23.072Z,101240.89
2018-06-02T06:20:48.828Z,101240.94
2018-06-02T06:23:14.574Z,101247.25
2018-06-02T06:25:40.323Z,101246.81
2018-06-02T06:28:06.080Z,101246.58
2018-06-02T06:30:31.815Z,101245.59
2018-06-02T06:32:57.616Z,101236.91
2018-06-02T06:35:23.332Z,101235.69
2018-06-02T06:37:49.089Z,101238.01
2018-06-02T06:40:14.817Z,101238.48
2018-06-02T06:42:40.561Z,101241.30
2018-06-02T06:45:06.310Z,101239.96
2018-06-02T06:47:32.063Z,101237.92
2018-06-02T06:49:57.808Z,101242.22
2018-06-02T06:52:23.569Z,101239.25
2018-06-02T06:54:49.308Z,101230.17
2018-06-02T06:57:15.073Z,101232.67
2018-06-02T06:59:40.821Z,101237.52
2018-06-02T07:02:06.579Z,101238.31
2018-06-02T07:04:32.336Z,101237.00
2018-06-02T07:06:58.098Z,101224.61
2018-06-02T07:09:23.838Z,101236.01
2018-06-02T07:11:49.653Z,101238.86
2018-06-02T07:14:15.359Z,101234.84
2018-06-02T07:16:41.118Z,101240.55
2018-06-02T07:19:06.874Z,101240.26
2018-06-02T07:21:32.632Z,101250.46
2018-06-02T07:23:58.388Z,101241.98
2018-06-02T07:26:24.153Z,101247.27
2018-06-02T07:28:49.922Z,101252.55
2018-06-02T07:31:15.669Z,101255.65
2018-06-02T07:33:41.447Z,101255.20
2018-06-02T07:36:07.218Z,101264.72
2018-06-02T07:38:32.962Z,101265.53
2018-06-02T07:40:58.712Z,101258.00
2018-06-02T07:43:24.463Z,101261.66
2018-06-02T07:45:50.230Z,101262.62
2018-06-02T07:48:15.992Z,101271.66
2018-06-02T07:50:41.760Z,101274.00
2018-06-02T07:53:07.534Z,101275.05
2018-06-02T07:55:33.282Z,101267.19
2018-06-02T07:57:59.053Z,101263.16
2018-06-02T08:00:24.813Z,101263.65
2018-06-02T08:02:50.576Z,101258.83
2018-06-02T08:05:16.344Z,101262.68
2018-06-02T08:07:42.100Z,101257.75
2018-06-02T08:10:07.870Z,101252.23
2018-06-02T08:12:33.645Z,101258.83
2018-06-02T08:14:59.407Z,101258.98
2018-06-02T08:17:25.183Z,101257.91
2018-06-02T08:19:50.937Z,101261.63
2018-06-02T08:22:16.684Z,101262.41
2018-06-02T08:24:42.425Z,101260.41
2018-06-02T08:27:08.175Z,101258.27
2018-06-02T08:29:33.928Z,101270.72
2018-06-02T08:31:59.673Z,101262.61
2018-06-02T08:34:25.454Z,101265.19
2018-06-02T08:36:51.184Z,101272.16
2018-06-02T08:39:16.963Z,101269.09
2018-06-02T08:41:42.699Z,101271.42
2018-06-02T08:44:08.462Z,101265.33
2018-06-02T08:46:34.212Z,101270.52
2018-06-02T08:48:59.969Z,101272.08
2018-06-02T08:51:25.724Z,101264.92
2018-06-02T08:53:51.477Z,101267.96
2018-06-02T08:56:17.229Z,101267.34
2018-06-02T08:58:42.996Z,101272.03
2018-06-02T09:01:08.729Z,101273.78
2018-06-02T09:03:34.535Z,101272.27
2018-06-02T09:06:00.292Z,101275.69
2018-06-02T09:08:26.043Z,101273.36
2018-06-02T09:10:51.918Z,101265.83
2018-06-02T09:13:17.677Z,101266.77
2018-06-02T09:15:43.433Z,101275.04
2018-06-02T09:18:09.180Z,101275.47
2018-06-02T09:20:34.919Z,101273.35
2018-06-02T09:23:00.697Z,101274.00
2018-06-02T09:25:26.458Z,101264.06
2018-06-02T09:27:52.233Z,101270.69
2018-06-02T09:30:17.965Z,101267.73
2018-06-02T09:32:43.724Z,101270.02
2018-06-02T09:35:09.493Z,101269.05
2018-06-02T09:37:35.263Z,101267.97
2018-06-02T09:40:01.084Z,101268.22
2018-06-02T09:42:26.833Z,101272.70
2018-06-02T09:44:52.585Z,101275.78
2018-06-02T09:47:18.349Z,101279.88
2018-06-02T09:49:44.098Z,101286.45
2018-06-02T09:52:09.849Z,101278.33
2018-06-02T09:54:35.597Z,101285.13
2018-06-02T09:57:01.350Z,101285.03
2018-06-02T09:59:27.113Z,101285.11
2018-06-02T10:01:52.852Z,101282.20
2018-06-02T10:04:18.603Z,101286.13
2018-06-02T10:06:44.345Z,101285.25
2018-06-02T10:09:10.102Z,101288.39
2018-06-02T10:11:35.862Z,101282.73
2018-06-02T10:14:01.620Z,101295.89
2018-06-02T10:16:27.377Z,101286.55
2018-06-02T10:18:53.152Z,101290.84
2018-06-02T10:21:18.907Z,101285.90
2018-06-02T10:23:44.655Z,101288.16
2018-06-02T10:26:10.408Z,101291.91
2018-06-02T10:28:36.161Z,101291.63
2018-06-02T10:31:01.921Z,101292.33
2018-06-02T10:33:27.670Z,101300.48
2018-06-02T10:35:53.420Z,101297.85
2018-06-02T10:38:19.165Z,101295.47
2018-06-02T10:40:44.905Z,101289.98
2018-06-02T10:43:10.668Z,101294.48
2018-06-02T10:45:36.545Z,101295.58
2018-06-02T10:48:02.308Z,101304.44
2018-06-02T10:50:29.383Z,101299.80
2018-06-02T10:52:55.194Z,101304.86
2018-06-02T10:55:20.985Z,101304.04
2018-06-02T10:57:46.880Z,101311.56
2018-06-02T11:00:13.007Z,101307.56
2018-06-02T11:02:38.746Z,101306.59
2018-06-02T11:05:04.593Z,101306.30
2018-06-02T11:07:30.388Z,101308.77
2018-06-02T11:09:56.180Z,101312.55
2018-06-02T11:12:21.982Z,101312.67
2018-06-02T11:14:47.868Z,101316.43
2018-06-02T11:17:13.889Z,101316.38
2018-06-02T11:19:39.677Z,101318.44
2018-06-02T11:22:08.001Z,101320.86
2018-06-02T11:24:33.823Z,101319.70
2018-06-02T11:27:00.664Z,101320.50
2018-06-02T11:29:26.749Z,101326.90
2018-06-02T11:31:52.751Z,101325.56
2018-06-02T11:34:18.564Z,101325.97
2018-06-02T11:36:44.472Z,101328.78
2018-06-02T11:39:10.352Z,101326.56
2018-06-02T11:41:36.394Z,101325.20
2018-06-02T11:44:02.600Z,101329.56
2018-06-02T11:46:28.384Z,101328.70
2018-06-02T11:48:54.207Z,101331.58
2018-06-02T11:51:19.954Z,101332.64
2018-06-02T11:53:45.724Z,101336.33
2018-06-02T11:56:11.485Z,101330.28
2018-06-02T11:58:37.240Z,101330.49
2018-06-02T12:01:03.059Z,101328.56
2018-06-02T12:03:28.749Z,101329.17
2018-06-02T12:05:54.516Z,101325.84
2018-06-02T12:08:20.256Z,101324.10
2018-06-02T12:10:46.014Z,101328.89
2018-06-02T12:13:11.765Z,101331.19
2018-06-02T12:15:37.526Z,101334.50
2018-06-02T12:18:03.267Z,101330.59
2018-06-02T12:20:29.036Z,101333.95
2018-06-02T12:22:54.775Z,101333.59
2018-06-02T12:25:20.553Z,101340.52
2018-06-02T12:27:46.302Z,101334.94
2018-06-02T12:30:12.049Z,101336.38
2018-06-02T12:32:37.798Z,101339.93
2018-06-02T12:35:03.562Z,101339.02
2018-06-02T12:37:29.310Z,101336.16
2018-06-02T12:39:55.068Z,101342.86
2018-06-02T12:42:20.818Z,101339.67
2018-06-02T12:44:46.569Z,101340.64
2018-06-02T12:47:12.313Z,101340.02
2018-06-02T12:49:38.064Z,101346.51
2018-06-02T12:52:09.921Z,101351.08
2018-06-02T12:54:35.668Z,101350.30
2018-06-02T12:57:01.423Z,101352.64
2018-06-02T12:59:27.226Z,101353.58
2018-06-02T13:01:52.975Z,101350.56
2018-06-02T13:04:20.202Z,101354.05
2018-06-02T13:06:46.697Z,101349.70
2018-06-02T13:09:12.434Z,101350.31
2018-06-02T13:11:40.707Z,101347.85
2018-06-02T13:14:07.130Z,101360.97
2018-06-02T13:16:32.885Z,101353.92
2018-06-02T13:18:58.641Z,101352.73
2018-06-02T13:21:24.403Z,101355.11
2018-06-02T13:23:50.137Z,101352.86
2018-06-02T13:26:16.145Z,101351.34
2018-06-02T13:28:41.920Z,101355.05
2018-06-02T13:31:07.720Z,101355.58
2018-06-02T13:33:33.508Z,101355.03
2018-06-02T13:36:01.111Z,101345.13
2018-06-02T13:38:28.235Z,101351.59
2018-06-02T13:40:55.355Z,101350.11
2018-06-02T13:43:22.367Z,101342.73
2018-06-02T13:45:55.079Z,101346.52
2018-06-02T13:48:22.307Z,101344.29
2018-06-02T13:50:48.907Z,101353.01
2018-06-02T13:53:16.071Z,101347.64
2018-06-02T13:55:42.678Z,101345.42
2018-06-02T13:58:08.411Z,101351.08
2018-06-02T14:00:34.241Z,101346.92
2018-06-02T14:02:59.987Z,101351.91
2018-06-02T14:05:25.738Z,101353.08
2018-06-02T14:07:51.486Z,101345.63
2018-06-02T14:10:17.252Z,101343.80
2018-06-02T14:12:42.993Z,101339.81
2018-06-02T14:15:08.745Z,101343.31
2018-06-02T14:17:34.522Z,101347.77
2018-06-02T14:20:00.293Z,101354.04
2018-06-02T14:22:26.046Z,101356.15
2018-06-02T14:24:51.802Z,101346.76
2018-06-02T14:27:17.581Z,101354.42
2018-06-02T14:29:43.329Z,101349.95
2018-06-02T14:32:09.086Z,101353.78
2018-06-02T14:34:34.809Z,101348.29
2018-06-02T14:37:00.574Z,101340.20
2018-06-02T14:39:26.323Z,101345.67
2018-06-02T14:41:52.091Z,101348.16
2018-06-02T14:44:17.832Z,101345.83
2018-06-02T14:46:43.623Z,101339.41
2018-06-02T14:49:09.371Z,101338.55
2018-06-02T14:51:35.137Z,101346.33
2018-06-02T14:54:00.898Z,101338.25
2018-06-02T14:56:26.673Z,101340.64
2018-06-02T14:58:52.452Z,101339.48
2018-06-02T15:01:18.188Z,101339.87
2018-06-02T15:03:43.937Z,101343.42
2018-06-02T15:06:09.690Z,101347.33
2018-06-02T15:08:35.440Z,101346.09
2018-06-02T15:11:01.213Z,101338.30
2018-06-02T15:13:26.985Z,101339.58
2018-06-02T15:15:52.733Z,101337.96
2018-06-02T15:18:18.500Z,101339.48
2018-06-02T15:20:44.261Z,101336.37
2018-06-02T15:23:10.017Z,101332.16
2018-06-02T15:25:35.762Z,101337.67
2018-06-02T15:28:01.509Z,101336.78
2018-06-02T15:30:27.247Z,101343.97
2018-06-02T15:32:52.999Z,101344.95
2018-06-02T15:35:18.759Z,101351.20
2018-06-02T15:37:44.534Z,101338.27
2018-06-02T15:40:10.267Z,101355.77
2018-06-02T15:42:36.025Z,101349.17
2018-06-02T15:45:01.770Z,101347.23
2018-06-02T15:47:27.526Z,101354.29
2018-06-02T15:49:53.261Z,101357.35
2018-06-02T15:52:19.032Z,101352.69
2018-06-02T15:54:44.761Z,101355.37
2018-06-02T15:57:10.517Z,101351.73
2018-06-02T15:59:36.257Z,101355.08
2018-06-02T16:02:02.000Z,101354.16
2018-06-02T16:04:27.745Z,101357.70
2018-06-02T16:06:53.504Z,101367.21
2018-06-02T16:09:19.259Z,101375.53
2018-06-02T16:11:44.993Z,101363.70
2018-06-02T16:14:10.743Z,101369.00
2018-06-02T16:16:36.493Z,101365.20
2018-06-02T16:19:02.283Z,101367.42
2018-06-02T16:21:28.055Z,101372.20
2018-06-02T16:23:53.796Z,101366.59
2018-06-02T16:26:19.541Z,101374.61
2018-06-02T16:28:45.293Z,101367.99
2018-06-02T16:31:11.040Z,101375.61
2018-06-02T16:33:36.792Z,101373.56
2018-06-02T16:36:02.551Z,101370.56
2018-06-02T16:38:28.297Z,101370.62
2018-06-02T16:40:54.040Z,101375.81
2018-06-02T16:43:19.816Z,101371.09
2018-06-02T16:45:45.565Z,101371.27
2018-06-02T16:48:11.328Z,101370.48
2018-06-02T16:50:37.081Z,101372.31
2018-06-02T16:53:02.835Z,101365.59
2018-06-02T16:55:28.594Z,101362.06
2018-06-02T16:57:54.356Z,101362.03
2018-06-02T17:00:20.104Z,101356.24
2018-06-02T17:02:45.859Z,101356.48
2018-06-02T17:05:11.607Z,101353.84
2018-06-02T17:07:37.362Z,101359.78
2018-06-02T17:10:03.104Z,101361.42
2018-06-02T17:12:28.860Z,101368.44
2018-06-02T17:14:54.608Z,101361.93
2018-06-02T17:17:20.397Z,101374.40
2018-06-02T17:19:46.207Z,101368.77
2018-06-02T17:22:11.966Z,101380.23
2018-06-02T17:24:37.722Z,101382.79
2018-06-02T17:27:03.481Z,101383.15
2018-06-02T17:29:29.240Z,101386.83
2018-06-02T17:31:54.989Z,101383.56
2018-06-02T17:34:20.749Z,101388.28
2018-06-02T17:36:46.487Z,101390.03
2018-06-02T17:39:12.232Z,101383.27
2018-06-02T17:41:37.980Z,101379.38
2018-06-02T17:44:03.737Z,101378.95
2018-06-02T17:46:29.464Z,101371.78
2018-06-02T17:48:55.237Z,101372.94
2018-06-02T17:51:20.979Z,101371.83
2018-06-02T17:53:46.734Z,101373.36
2018-06-02T17:56:12.478Z,101379.02
2018-06-02T17:58:38.228Z,101376.27
2018-06-02T18:01:03.977Z,101383.60
2018-06-02T18:03:29.726Z,101391.36
2018-06-02T18:05:55.473Z,101386.23
2018-06-02T18:08:21.244Z,101392.73
2018-06-02T18:10:46.998Z,101391.10
2018-06-02T18:13:12.745Z,101392.45
2018-06-02T18:15:38.485Z,101391.20
2018-06-02T18:18:04.260Z,101396.16
2018-06-02T18:20:30.016Z,101403.94
2018-06-02T18:22:55.768Z,101408.78
2018-06-02T18:25:21.535Z,101404.53
2018-06-02T18:27:47.289Z,101404.69
2018-06-02T18:30:13.059Z,101404.45
2018-06-02T18:32:38.808Z,101405.41
2018-06-02T18:35:04.552Z,101400.15
2018-06-02T18:37:30.293Z,101408.60
2018-06-02T18:39:56.052Z,101410.36
2018-06-02T18:42:21.801Z,101409.41
2018-06-02T18:44:47.552Z,101417.36
2018-06-02T18:47:13.301Z,101409.61
2018-06-02T18:49:39.040Z,101413.73
2018-06-02T18:52:04.791Z,101409.83
2018-06-02T18:54:30.536Z,101412.19
2018-06-02T18:56:56.295Z,101417.83
2018-06-02T18:59:22.090Z,101415.12
2018-06-02T19:01:47.858Z,101419.72
2018-06-02T19:04:13.612Z,101424.66
2018-06-02T19:06:39.377Z,101427.16
2018-06-02T19:09:05.141Z,101426.62
2018-06-02T19:11:30.894Z,101427.58
2018-06-02T19:13:56.646Z,101431.30
2018-06-02T19:16:22.384Z,101440.64
2018-06-02T19:18:48.146Z,101437.12
2018-06-02T19:21:13.908Z,101440.19
2018-06-02T19:23:39.668Z,101438.36
2018-06-02T19:26:05.401Z,101446.96
2018-06-02T19:28:31.160Z,101448.44
2018-06-02T19:30:56.902Z,101456.77
2018-06-02T19:33:22.635Z,101460.02
2018-06-02T19:35:48.397Z,101457.13
2018-06-02T19:38:14.138Z,101467.59
2018-06-02T19:40:39.912Z,101462.41
2018-06-02T19:43:05.674Z,101464.70
2018-06-02T19:45:31.415Z,101465.98
2018-06-02T19:47:57.148Z,101463.85
2018-06-02T19:50:22.904Z,101474.23
2018-06-02T19:52:48.644Z,101478.17
2018-06-02T19:55:14.415Z,101478.61
2018-06-02T19:57:40.129Z,101482.91
2018-06-02T20:00:05.911Z,101480.91
2018-06-02T20:02:31.664Z,101480.52
2018-06-02T20:04:57.416Z,101474.29
2018-06-02T20:07:23.157Z,101489.00
2018-06-02T20:09:48.911Z,101485.13
2018-06-02T20:12:14.659Z,101477.01
2018-06-02T20:15:15.343Z,101480.78
2018-06-02T20:17:42.240Z,101481.02
2018-06-02T20:20:09.171Z,101475.16
2018-06-02T20:22:36.124Z,101475.50
2018-06-02T20:25:03.012Z,101473.20
2018-06-02T20:27:29.929Z,101473.90
2018-06-02T20:29:56.845Z,101485.73
2018-06-02T20:32:23.741Z,101473.09
2018-06-02T20:34:50.642Z,101484.13
2018-06-02T20:37:17.574Z,101475.84
2018-06-02T20:39:44.484Z,101481.13
2018-06-02T20:42:11.391Z,101480.33
2018-06-02T20:44:38.282Z,101485.08
2018-06-02T20:47:05.192Z,101478.03
2018-06-02T20:49:32.124Z,101486.88
2018-06-02T20:51:59.029Z,101482.55
2018-06-02T20:54:25.942Z,101483.47
2018-06-02T20:56:52.840Z,101491.50
2018-06-02T20:59:19.744Z,101492.15
2018-06-02T21:01:46.654Z,101483.30
2018-06-02T21:04:13.553Z,101494.89
2018-06-02T21:06:40.466Z,101496.98
2018-06-02T21:09:07.369Z,101496.31
2018-06-02T21:11:34.274Z,101497.19
2018-06-02T21:14:01.172Z,101502.59
2018-06-02T21:16:28.065Z,101504.84
2018-06-02T21:18:54.956Z,101507.36
2018-06-02T21:21:21.873Z,101506.16
2018-06-02T21:23:48.773Z,101511.30
2018-06-02T21:26:15.667Z,101511.66
2018-06-02T21:28:42.555Z,101514.80
2018-06-02T21:31:09.461Z,101521.48
2018-06-02T21:33:36.349Z,101518.28
2018-06-02T21:36:03.252Z,101523.20
2018-06-02T21:38:30.128Z,101521.06
2018-06-02T21:40:57.034Z,101514.80
2018-06-02T21:43:23.935Z,101517.89
2018-06-02T21:45:50.848Z,101517.53
2018-06-02T21:48:17.736Z,101521.80
2018-06-02T21:50:44.657Z,101514.58
2018-06-02T21:53:11.544Z,101516.05
2018-06-02T21:55:38.432Z,101515.94
2018-06-02T21:58:05.325Z,101514.98
2018-06-02T22:00:32.220Z,101509.36
2018-06-02T22:02:59.141Z,101509.23
2018-06-02T22:05:26.277Z,101509.72
2018-06-02T22:07:53.265Z,101510.49
2018-06-02T22:10:20.177Z,101515.06
2018-06-02T22:12:47.120Z,101514.58
2018-06-02T22:15:14.013Z,101522.42
2018-06-02T22:17:40.899Z,101515.36
2018-06-02T22:20:07.812Z,101521.52
2018-06-02T22:22:34.692Z,101524.61
2018-06-02T22:27:35.190Z,101526.27
2018-06-02T22:30:02.121Z,101527.11
2018-06-02T22:32:29.028Z,101517.32
2018-06-02T22:34:55.941Z,101524.23
2018-06-02T22:37:22.854Z,101519.36
2018-06-02T22:39:49.741Z,101516.59
2018-06-02T22:42:16.654Z,101512.98
2018-06-02T22:44:43.548Z,101515.27
2018-06-02T22:47:10.454Z,101524.22
2018-06-02T22:49:37.352Z,101523.76
2018-06-02T22:52:04.269Z,101520.48
2018-06-02T22:54:31.246Z,101516.06
2018-06-02T22:56:58.260Z,101519.09
2018-06-02T22:59:25.309Z,101523.83
2018-06-02T23:01:52.249Z,101518.59
2018-06-02T23:04:19.172Z,101519.30
2018-06-02T23:06:46.249Z,101526.48
2018-06-02T23:09:13.150Z,101522.47
2018-06-02T23:11:40.059Z,101510.28
2018-06-02T23:14:06.950Z,101510.41
2018-06-02T23:16:33.868Z,101513.52
2018-06-02T23:19:00.765Z,101513.29
2018-06-02T23:21:27.672Z,101517.43
2018-06-02T23:23:54.561Z,101516.80
2018-06-02T23:26:21.445Z,101517.27
2018-06-02T23:28:48.338Z,101518.53
2018-06-02T23:31:15.248Z,101506.44
2018-06-02T23:33:42.146Z,101519.09
2018-06-02T23:36:09.044Z,101515.34
2018-06-02T23:38:35.932Z,101519.98
2018-06-02T23:41:02.832Z,101507.16
2018-06-02T23:43:29.721Z,101508.72
2018-06-02T23:45:56.612Z,101511.84
2018-06-02T23:48:23.509Z,101513.77
2018-06-02T23:50:50.404Z,101511.78
2018-06-02T23:53:17.289Z,101511.41
2018-06-02T23:55:44.192Z,101517.95
2018-06-02T23:58:11.102Z,101515.28
